Aviation Digital Data Service (ADDS)

Output produced by METARs form (0221 UTC 27 June 2019)
found at http://aviationweather.gov/metar/data/
 
KOEO 270215Z AUTO 00000KT 10SM CLR 22/16 A3004 RMK AO2 T02200160